createdAt,value
2023-01-25T00:02:42.672Z,6.53
2023-01-25T00:05:56.832Z,6.10
2023-01-25T00:09:08.973Z,6.40
2023-01-25T00:12:20.933Z,6.25
2023-01-25T00:15:33.057Z,6.30
2023-01-25T00:18:45.197Z,6.38
2023-01-25T00:21:57.658Z,6.13
2023-01-25T00:25:10.786Z,5.35
2023-01-25T00:28:22.971Z,5.60
2023-01-25T00:31:48.631Z,5.98
2023-01-25T00:35:01.234Z,5.68
2023-01-25T00:38:20.838Z,5.43
2023-01-25T00:41:33.121Z,4.78
2023-01-25T00:44:45.741Z,5.33
2023-01-25T00:48:00.497Z,5.68
2023-01-25T00:51:24.808Z,4.98
2023-01-25T00:54:37.077Z,5.23
2023-01-25T00:57:49.034Z,4.83
2023-01-25T01:01:02.087Z,4.70
2023-01-25T01:04:15.380Z,5.10
2023-01-25T01:07:27.463Z,5.10
2023-01-25T01:10:39.635Z,5.25
2023-01-25T01:13:51.884Z,4.75
2023-01-25T01:17:03.797Z,4.68
2023-01-25T01:20:18.467Z,4.50
2023-01-25T01:23:30.544Z,5.08
2023-01-25T01:26:42.642Z,5.65
2023-01-25T01:29:54.556Z,5.60
2023-01-25T01:33:06.548Z,4.95
2023-01-25T01:36:23.375Z,5.00
2023-01-25T01:39:35.676Z,5.40
2023-01-25T01:43:05.424Z,5.80
2023-01-25T01:46:26.859Z,5.63
2023-01-25T01:49:41.165Z,5.78
2023-01-25T01:52:55.967Z,5.18
2023-01-25T01:56:12.840Z,5.15
2023-01-25T02:02:35.797Z,5.30
2023-01-25T02:05:54.383Z,5.48
2023-01-25T02:09:07.919Z,5.60
2023-01-25T02:12:21.575Z,5.60
2023-01-25T02:15:43.192Z,5.20
2023-01-25T02:18:55.657Z,5.25
2023-01-25T02:22:10.461Z,6.60
2023-01-25T02:25:23.801Z,6.18
2023-01-25T02:28:40.917Z,6.53
2023-01-25T02:35:06.083Z,6.28
2023-01-25T02:38:22.043Z,6.68
2023-01-25T02:41:41.049Z,6.88
2023-01-25T02:44:54.941Z,7.03
2023-01-25T02:48:09.434Z,6.50
2023-01-25T02:51:21.887Z,7.30
2023-01-25T02:54:33.947Z,6.53
2023-01-25T02:57:46.765Z,6.23
2023-01-25T03:01:01.746Z,6.93
2023-01-25T03:04:15.251Z,7.03
2023-01-25T03:07:27.492Z,7.43
2023-01-25T03:10:40.600Z,7.08
2023-01-25T03:13:52.909Z,7.25
2023-01-25T03:17:05.144Z,7.60
2023-01-25T03:20:19.778Z,7.25
2023-01-25T03:23:32.206Z,8.03
2023-01-25T03:26:55.891Z,8.05
2023-01-25T03:30:11.774Z,7.68
2023-01-25T03:33:24.020Z,7.43
2023-01-25T03:36:36.298Z,8.15
2023-01-25T03:39:48.695Z,7.83
2023-01-25T03:43:01.612Z,6.98
2023-01-25T03:46:14.847Z,8.43
2023-01-25T03:49:28.102Z,9.23
2023-01-25T03:52:42.331Z,7.60
2023-01-25T03:55:54.441Z,7.48
2023-01-25T03:59:09.403Z,8.38
2023-01-25T04:02:22.131Z,9.40
2023-01-25T04:05:34.598Z,9.13
2023-01-25T04:08:47.276Z,9.60
2023-01-25T04:11:59.567Z,9.08
2023-01-25T04:15:14.745Z,8.08
2023-01-25T04:18:27.048Z,7.65
2023-01-25T04:21:40.201Z,8.13
2023-01-25T04:24:53.005Z,8.08
2023-01-25T04:28:05.528Z,8.08
2023-01-25T04:31:17.925Z,7.98
2023-01-25T04:34:30.289Z,7.88
2023-01-25T04:37:42.865Z,7.60
2023-01-25T04:40:55.096Z,7.73
2023-01-25T04:44:07.981Z,8.58
2023-01-25T04:47:21.833Z,8.73
2023-01-25T04:50:34.785Z,7.95
2023-01-25T04:53:47.468Z,7.80
2023-01-25T04:57:02.033Z,8.25
2023-01-25T05:00:17.854Z,7.98
2023-01-25T05:03:30.529Z,9.35
2023-01-25T05:06:43.253Z,9.80
2023-01-25T05:09:57.308Z,9.83
2023-01-25T05:13:09.667Z,9.60
2023-01-25T05:16:22.180Z,9.78
2023-01-25T05:19:34.391Z,10.70
2023-01-25T05:22:48.335Z,10.08
2023-01-25T05:26:15.346Z,10.70
2023-01-25T05:29:27.864Z,10.53
2023-01-25T05:32:42.104Z,10.73
2023-01-25T05:35:54.213Z,9.80
2023-01-25T05:39:06.624Z,9.40
2023-01-25T05:42:22.304Z,8.88
2023-01-25T05:45:34.712Z,9.75
2023-01-25T05:48:47.848Z,9.68
2023-01-25T05:52:00.273Z,9.20
2023-01-25T05:55:15.711Z,8.93
2023-01-25T05:58:28.264Z,8.20
2023-01-25T06:01:40.774Z,8.40
2023-01-25T06:04:53.471Z,8.40
2023-01-25T06:08:06.148Z,7.88
2023-01-25T06:11:22.720Z,8.45
2023-01-25T06:14:35.654Z,9.70
2023-01-25T06:17:49.176Z,8.48
2023-01-25T06:21:20.377Z,8.25
2023-01-25T06:24:32.601Z,7.45
2023-01-25T06:27:44.665Z,7.73
2023-01-25T06:30:57.121Z,7.63
2023-01-25T06:34:10.161Z,8.30
2023-01-25T06:37:23.055Z,8.13
2023-01-25T06:40:36.017Z,8.83
2023-01-25T06:43:48.222Z,8.43
2023-01-25T06:47:00.958Z,17.63
2023-01-25T06:50:15.557Z,47.78
2023-01-25T06:53:28.481Z,8.20
2023-01-25T06:56:40.645Z,7.88
2023-01-25T06:59:52.739Z,6.90
2023-01-25T07:03:04.664Z,6.68
2023-01-25T07:06:17.500Z,6.45
2023-01-25T07:09:29.670Z,60.85
2023-01-25T07:12:41.627Z,17.30
2023-01-25T07:16:00.550Z,6.88
2023-01-25T07:19:15.650Z,7.25
2023-01-25T07:22:27.820Z,6.58
2023-01-25T07:25:40.236Z,7.00
2023-01-25T07:28:53.501Z,7.58
2023-01-25T07:32:06.772Z,6.88
2023-01-25T07:35:19.236Z,6.95
2023-01-25T07:38:31.467Z,7.93
2023-01-25T07:41:43.868Z,7.55
2023-01-25T07:48:15.711Z,6.88
2023-01-25T07:54:40.554Z,5.90
2023-01-25T07:57:53.145Z,7.95
2023-01-25T08:01:14.185Z,7.93
2023-01-25T08:04:26.572Z,7.45
2023-01-25T08:07:38.709Z,8.55
2023-01-25T08:10:50.790Z,7.88
2023-01-25T08:14:03.682Z,7.78
2023-01-25T08:17:15.715Z,58.05
2023-01-25T08:20:27.910Z,21.00
2023-01-25T08:23:39.989Z,12.08
2023-01-25T08:26:52.114Z,9.35
2023-01-25T08:30:04.019Z,8.53
2023-01-25T08:33:16.467Z,9.18
2023-01-25T08:36:29.679Z,8.40
2023-01-25T08:39:42.094Z,7.78
2023-01-25T08:42:54.300Z,14.13
2023-01-25T08:46:06.609Z,21.18
2023-01-25T08:49:18.695Z,13.73
2023-01-25T08:52:30.837Z,10.43
2023-01-25T08:55:45.049Z,8.80
2023-01-25T08:58:57.646Z,10.15
2023-01-25T09:02:09.925Z,8.25
2023-01-25T09:05:22.233Z,9.75
2023-01-25T09:08:34.293Z,9.25
2023-01-25T09:11:46.242Z,8.75
2023-01-25T09:14:59.009Z,27.20
2023-01-25T09:18:11.539Z,6.70
2023-01-25T09:21:24.866Z,11.20
2023-01-25T09:24:37.519Z,6.80
2023-01-25T09:27:49.693Z,7.73
2023-01-25T09:31:21.139Z,7.55
2023-01-25T09:34:29.249Z,7.63
2023-01-25T09:37:41.172Z,7.73
2023-01-25T09:41:02.568Z,7.00
2023-01-25T09:44:34.446Z,7.98
2023-01-25T09:47:55.889Z,8.35
2023-01-25T09:51:25.481Z,9.73
2023-01-25T09:54:48.206Z,11.30
2023-01-25T09:57:59.979Z,12.75
2023-01-25T10:01:38.165Z,11.30
2023-01-25T10:04:47.293Z,11.13
2023-01-25T10:08:05.216Z,11.35
2023-01-25T10:11:26.071Z,11.58
2023-01-25T10:14:38.053Z,12.78
2023-01-25T10:17:50.653Z,13.00
2023-01-25T10:21:07.509Z,14.30
2023-01-25T10:24:44.905Z,11.90
2023-01-25T10:28:12.858Z,13.08
2023-01-25T10:31:31.704Z,11.98
2023-01-25T10:34:56.690Z,12.05
2023-01-25T10:38:09.584Z,13.35
2023-01-25T10:41:28.502Z,12.28
2023-01-25T10:44:42.015Z,12.15
2023-01-25T10:48:01.470Z,27.65
2023-01-25T10:51:13.921Z,41.35
2023-01-25T10:54:30.188Z,17.08
2023-01-25T10:57:44.505Z,11.15
2023-01-25T11:00:58.731Z,10.33
2023-01-25T11:04:18.979Z,9.88
2023-01-25T11:07:35.607Z,9.68
2023-01-25T11:10:51.448Z,8.73
2023-01-25T11:14:06.137Z,8.20
2023-01-25T11:17:30.498Z,8.75
2023-01-25T11:20:42.697Z,9.30
2023-01-25T11:24:23.071Z,9.40
2023-01-25T11:27:35.547Z,9.10
2023-01-25T11:30:48.099Z,22.40
2023-01-25T11:34:00.376Z,19.23
2023-01-25T11:37:50.374Z,10.23
2023-01-25T11:41:09.153Z,7.98
2023-01-25T11:44:41.844Z,6.08
2023-01-25T11:48:08.573Z,5.18
2023-01-25T11:51:25.613Z,5.97
2023-01-25T11:54:55.773Z,7.63
2023-01-25T11:58:36.923Z,7.05
2023-01-25T12:02:00.394Z,7.63
2023-01-25T12:05:34.849Z,8.88
2023-01-25T12:09:19.212Z,9.43
2023-01-25T12:12:44.759Z,11.48
2023-01-25T12:16:20.256Z,10.28
2023-01-25T12:19:54.453Z,8.35
2023-01-25T12:23:21.715Z,8.68
2023-01-25T12:26:41.199Z,8.13
2023-01-25T12:29:59.144Z,8.18
2023-01-25T12:33:17.492Z,8.28
2023-01-25T12:36:35.842Z,9.08
2023-01-25T12:39:54.765Z,7.53
2023-01-25T12:43:07.743Z,8.28
2023-01-25T12:46:26.462Z,7.58
2023-01-25T12:49:44.536Z,7.00
2023-01-25T12:53:01.909Z,7.75
2023-01-25T12:56:18.915Z,6.55
2023-01-25T12:59:40.479Z,7.33
2023-01-25T13:03:14.732Z,7.00
2023-01-25T13:06:33.295Z,6.05
2023-01-25T13:09:52.359Z,5.83
2023-01-25T13:13:08.213Z,5.90
2023-01-25T13:16:51.851Z,6.73
2023-01-25T13:20:05.779Z,6.80
2023-01-25T13:23:37.826Z,5.43
2023-01-25T13:27:09.072Z,5.53
2023-01-25T13:30:40.188Z,6.40
2023-01-25T13:33:52.423Z,6.13
2023-01-25T13:37:04.551Z,6.78
2023-01-25T13:40:35.792Z,6.85
2023-01-25T13:43:55.144Z,6.28
2023-01-25T13:47:10.844Z,4.95
2023-01-25T13:50:29.590Z,3.75
2023-01-25T13:53:45.493Z,3.25
2023-01-25T13:57:12.829Z,3.08
2023-01-25T14:00:28.257Z,3.55
2023-01-25T14:03:45.868Z,5.70
2023-01-25T14:07:06.167Z,4.83
2023-01-25T14:10:27.875Z,5.15
2023-01-25T14:13:40.205Z,5.95
2023-01-25T14:16:55.336Z,4.90
2023-01-25T14:20:10.618Z,4.88
2023-01-25T14:23:32.732Z,5.08
2023-01-25T14:26:47.787Z,4.88
2023-01-25T14:30:00.477Z,5.98
2023-01-25T14:33:24.596Z,6.70
2023-01-25T14:36:38.530Z,13.85
2023-01-25T14:39:52.142Z,6.50
2023-01-25T14:43:05.504Z,6.45
2023-01-25T14:46:36.396Z,5.83
2023-01-25T14:49:48.706Z,5.30
2023-01-25T14:53:01.271Z,4.23
2023-01-25T14:56:24.307Z,4.38
2023-01-25T14:59:42.552Z,3.53
2023-01-25T15:02:58.064Z,3.25
2023-01-25T15:06:12.395Z,3.93
2023-01-25T15:10:01.087Z,4.50
2023-01-25T15:13:27.544Z,4.70
2023-01-25T15:16:43.373Z,4.70
2023-01-25T15:20:01.273Z,4.35
2023-01-25T15:23:28.673Z,4.55
2023-01-25T15:26:42.086Z,4.05
2023-01-25T15:29:54.855Z,4.15
2023-01-25T15:33:08.533Z,3.88
2023-01-25T15:36:21.638Z,4.05
2023-01-25T15:39:35.155Z,5.23
2023-01-25T15:42:47.485Z,5.90
2023-01-25T15:46:00.750Z,5.70
2023-01-25T15:49:15.071Z,6.28
2023-01-25T15:52:27.385Z,6.08
2023-01-25T15:55:41.131Z,6.40
2023-01-25T15:58:57.939Z,5.35
2023-01-25T16:02:10.208Z,5.48
2023-01-25T16:05:22.915Z,5.90
2023-01-25T16:08:35.533Z,5.93
2023-01-25T16:11:51.145Z,6.40
2023-01-25T16:15:03.432Z,7.90
2023-01-25T16:18:20.375Z,7.68
2023-01-25T16:24:43.991Z,7.88
2023-01-25T16:27:56.730Z,9.45
2023-01-25T16:31:09.792Z,9.38
2023-01-25T16:34:23.849Z,9.60
2023-01-25T16:37:37.317Z,8.00
2023-01-25T16:40:49.585Z,9.03
2023-01-25T16:44:02.061Z,9.20
2023-01-25T16:47:18.204Z,9.68
2023-01-25T16:50:31.061Z,10.47
2023-01-25T16:53:43.115Z,9.33
2023-01-25T16:56:56.805Z,8.15
2023-01-25T17:00:10.657Z,8.45
2023-01-25T17:03:23.463Z,9.30
2023-01-25T17:06:38.532Z,9.65
2023-01-25T17:09:50.867Z,10.13
2023-01-25T17:13:03.186Z,10.25
2023-01-25T17:16:15.715Z,9.65
2023-01-25T17:19:28.516Z,9.55
2023-01-25T17:22:42.109Z,10.55
2023-01-25T17:25:54.436Z,11.43
2023-01-25T17:29:07.620Z,13.10
2023-01-25T17:32:19.575Z,10.58
2023-01-25T17:35:31.582Z,9.83
2023-01-25T17:38:43.984Z,8.78
2023-01-25T17:41:57.371Z,8.55
2023-01-25T17:45:11.134Z,9.93
2023-01-25T17:48:23.402Z,11.20
2023-01-25T17:51:36.706Z,11.80
2023-01-25T17:54:48.759Z,10.48
2023-01-25T17:58:00.803Z,9.70
2023-01-25T18:01:20.100Z,9.70
2023-01-25T18:04:32.172Z,9.30
2023-01-25T18:07:45.212Z,11.15
2023-01-25T18:10:57.509Z,11.60
2023-01-25T18:14:12.805Z,11.70
2023-01-25T18:17:25.613Z,11.88
2023-01-25T18:20:37.633Z,11.68
2023-01-25T18:23:53.036Z,11.10
2023-01-25T18:27:11.045Z,11.40
2023-01-25T18:30:37.043Z,12.00
2023-01-25T18:33:49.280Z,11.80
2023-01-25T18:37:02.107Z,12.78
2023-01-25T18:40:19.047Z,13.28
2023-01-25T18:46:43.306Z,12.88
2023-01-25T18:49:57.343Z,13.90
2023-01-25T18:53:09.400Z,15.20
2023-01-25T18:56:23.843Z,17.53
2023-01-25T18:59:36.276Z,17.35
2023-01-25T19:02:48.632Z,16.95
2023-01-25T19:06:01.389Z,18.03
2023-01-25T19:09:13.431Z,19.45
2023-01-25T19:12:25.599Z,18.18
2023-01-25T19:15:37.694Z,19.25
2023-01-25T19:18:53.172Z,20.18
2023-01-25T19:22:06.766Z,21.23
2023-01-25T19:25:19.538Z,21.13
2023-01-25T19:28:32.775Z,22.63
2023-01-25T19:31:45.576Z,27.10
2023-01-25T19:34:58.720Z,27.60
2023-01-25T19:38:10.925Z,27.58
2023-01-25T19:41:25.191Z,27.23
2023-01-25T19:44:37.320Z,28.63
2023-01-25T19:47:49.490Z,27.38
2023-01-25T19:51:11.861Z,25.98
2023-01-25T19:54:25.127Z,28.83
2023-01-25T19:57:38.400Z,28.98
2023-01-25T20:00:50.549Z,29.18
2023-01-25T20:04:05.995Z,26.85
2023-01-25T20:07:18.802Z,28.78
2023-01-25T20:10:30.899Z,30.83
2023-01-25T20:13:43.538Z,29.88
2023-01-25T20:16:56.061Z,31.05
2023-01-25T20:20:08.603Z,29.68
2023-01-25T20:23:20.549Z,27.68
2023-01-25T20:26:36.643Z,26.83
2023-01-25T20:29:49.185Z,24.70
2023-01-25T20:33:01.083Z,24.45
2023-01-25T20:36:14.745Z,23.10
2023-01-25T20:39:28.148Z,21.95
2023-01-25T20:42:47.634Z,20.18
2023-01-25T20:46:01.986Z,18.63
2023-01-25T20:49:17.995Z,17.98
2023-01-25T20:52:30.194Z,19.13
2023-01-25T20:55:42.489Z,18.03
2023-01-25T20:58:55.229Z,15.83
2023-01-25T21:02:07.538Z,15.53
2023-01-25T21:05:20.022Z,13.75
2023-01-25T21:08:36.226Z,15.55
2023-01-25T21:11:48.886Z,13.53
2023-01-25T21:15:01.249Z,14.15
2023-01-25T21:18:14.502Z,14.90
2023-01-25T21:21:30.004Z,15.30
2023-01-25T21:24:43.204Z,14.43
2023-01-25T21:27:55.725Z,15.18
2023-01-25T21:31:15.496Z,18.15
2023-01-25T21:34:28.352Z,17.13
2023-01-25T21:37:40.852Z,18.08
2023-01-25T21:40:53.259Z,18.53
2023-01-25T21:44:21.436Z,17.33
2023-01-25T21:47:35.491Z,17.20
2023-01-25T21:51:02.458Z,17.18
2023-01-25T21:54:14.956Z,18.38
2023-01-25T21:57:27.058Z,18.63
2023-01-25T22:00:39.669Z,18.70
2023-01-25T22:03:55.151Z,18.20
2023-01-25T22:07:08.009Z,19.53
2023-01-25T22:10:20.921Z,18.23
2023-01-25T22:13:34.876Z,17.88
2023-01-25T22:16:47.251Z,18.13
2023-01-25T22:19:59.312Z,17.58
2023-01-25T22:23:11.425Z,18.45
2023-01-25T22:26:26.994Z,16.75
2023-01-25T22:29:40.270Z,17.20
2023-01-25T22:32:52.313Z,16.43
2023-01-25T22:36:04.795Z,17.30
2023-01-25T22:39:19.269Z,17.75
2023-01-25T22:42:31.814Z,18.93
2023-01-25T22:45:43.959Z,17.00
2023-01-25T22:48:56.561Z,16.63
2023-01-25T22:52:08.895Z,15.93
2023-01-25T22:55:21.627Z,14.85
2023-01-25T22:58:33.932Z,16.90
2023-01-25T23:01:46.022Z,15.40
2023-01-25T23:04:58.236Z,14.75
2023-01-25T23:08:11.040Z,14.95
2023-01-25T23:11:26.343Z,14.93
2023-01-25T23:14:59.139Z,16.45
2023-01-25T23:18:26.790Z,16.18
2023-01-25T23:21:39.935Z,15.48
2023-01-25T23:24:52.040Z,16.10
2023-01-25T23:28:04.250Z,15.98
2023-01-25T23:31:21.914Z,17.50
2023-01-25T23:34:35.099Z,18.10
2023-01-25T23:37:47.314Z,18.08
2023-01-25T23:40:59.204Z,17.88
2023-01-25T23:44:14.260Z,17.28
2023-01-25T23:47:26.127Z,17.48
2023-01-25T23:50:38.172Z,17.10
2023-01-25T23:53:50.952Z,16.78
2023-01-25T23:57:02.997Z,16.45
